createdAt,value
2022-08-08T00:00:53.876Z,14.39
2022-08-08T00:03:19.782Z,14.36
2022-08-08T00:06:03.956Z,14.33
2022-08-08T00:08:50.788Z,14.31
2022-08-08T00:11:46.150Z,14.28
2022-08-08T00:15:00.028Z,14.21
2022-08-08T00:18:02.605Z,14.15
2022-08-08T00:20:37.188Z,14.12
2022-08-08T00:23:09.903Z,14.09
2022-08-08T00:25:46.342Z,14.07
2022-08-08T00:28:35.665Z,14.06
2022-08-08T00:32:28.513Z,14.03
2022-08-08T00:34:59.765Z,13.98
2022-08-08T00:37:48.345Z,13.93
2022-08-08T00:41:10.465Z,13.88
2022-08-08T00:43:56.341Z,13.84
2022-08-08T00:46:57.820Z,13.81
2022-08-08T00:50:03.851Z,13.79
2022-08-08T00:53:03.099Z,13.77
2022-08-08T00:55:55.870Z,13.76
2022-08-08T00:58:54.705Z,13.75
2022-08-08T01:01:44.165Z,13.75
2022-08-08T01:04:49.533Z,13.75
2022-08-08T01:07:56.211Z,13.72
2022-08-08T01:10:42.144Z,13.69
2022-08-08T01:13:52.940Z,13.64
2022-08-08T01:17:01.623Z,13.61
2022-08-08T01:20:02.680Z,13.57
2022-08-08T01:22:59.733Z,13.52
2022-08-08T01:25:43.502Z,13.52
2022-08-08T01:28:38.994Z,13.52
2022-08-08T01:32:15.602Z,13.52
2022-08-08T01:35:12.917Z,13.52
2022-08-08T01:38:16.537Z,13.53
2022-08-08T01:40:54.096Z,13.51
2022-08-08T01:43:34.670Z,13.50
2022-08-08T01:46:27.192Z,13.49
2022-08-08T01:49:31.107Z,13.47
2022-08-08T01:52:57.410Z,13.45
2022-08-08T01:56:29.261Z,13.42
2022-08-08T01:58:32.260Z,13.38
2022-08-08T02:01:28.133Z,13.34
2022-08-08T02:05:04.273Z,13.31
2022-08-08T02:07:49.660Z,13.26
2022-08-08T02:10:37.083Z,13.24
2022-08-08T02:13:54.120Z,13.21
2022-08-08T02:16:34.141Z,13.16
2022-08-08T02:19:41.560Z,13.11
2022-08-08T02:22:31.335Z,13.10
2022-08-08T02:25:22.800Z,13.09
2022-08-08T02:28:05.991Z,13.09
2022-08-08T02:31:24.568Z,13.03
2022-08-08T02:34:33.166Z,12.94
2022-08-08T02:37:52.196Z,12.90
2022-08-08T02:40:25.821Z,12.85
2022-08-08T02:44:38.904Z,12.79
2022-08-08T02:46:24.201Z,12.73
2022-08-08T02:49:13.375Z,12.70
2022-08-08T02:52:00.381Z,12.68
2022-08-08T02:55:05.780Z,12.67
2022-08-08T02:58:19.972Z,12.67
2022-08-08T03:01:24.857Z,12.64
2022-08-08T03:05:04.335Z,12.63
2022-08-08T03:06:49.837Z,12.60
2022-08-08T03:09:54.888Z,12.58
2022-08-08T03:13:01.728Z,12.58
2022-08-08T03:16:05.571Z,12.55
2022-08-08T03:19:13.931Z,12.53
2022-08-08T03:21:58.210Z,12.54
2022-08-08T03:24:28.939Z,12.52
2022-08-08T03:27:12.524Z,12.51
2022-08-08T03:29:54.706Z,12.50
2022-08-08T03:32:56.913Z,12.48
2022-08-08T03:35:30.322Z,12.46
2022-08-08T03:38:58.299Z,12.43
2022-08-08T03:40:52.189Z,12.41
2022-08-08T03:43:20.595Z,12.42
2022-08-08T03:46:05.443Z,12.46
2022-08-08T03:49:08.861Z,12.47
2022-08-08T03:51:40.412Z,12.51
2022-08-08T03:54:09.418Z,12.56
2022-08-08T03:56:36.998Z,12.61
2022-08-08T03:59:04.114Z,12.70
2022-08-08T04:02:02.397Z,12.81
2022-08-08T04:04:30.566Z,12.89
2022-08-08T04:07:00.914Z,13.01
2022-08-08T04:09:59.869Z,13.17
2022-08-08T04:12:17.983Z,13.36
2022-08-08T04:14:46.507Z,13.54
2022-08-08T04:17:45.839Z,13.73
2022-08-08T04:20:05.509Z,14.01
2022-08-08T04:22:38.944Z,14.30
2022-08-08T04:25:07.453Z,14.59
2022-08-08T04:28:01.614Z,14.92
2022-08-08T04:30:27.719Z,15.26
2022-08-08T04:32:55.338Z,15.54
2022-08-08T04:35:26.592Z,15.90
2022-08-08T04:37:56.564Z,16.30
2022-08-08T04:40:38.176Z,16.69
2022-08-08T04:43:05.566Z,17.02
2022-08-08T04:45:39.253Z,17.34
2022-08-08T04:48:09.049Z,17.72
2022-08-08T04:50:38.922Z,18.02
2022-08-08T04:54:36.619Z,18.16
2022-08-08T04:56:06.342Z,18.48
2022-08-08T04:58:34.493Z,18.84
2022-08-08T05:01:09.151Z,19.18
2022-08-08T05:04:09.362Z,19.54
2022-08-08T05:06:39.184Z,19.92
2022-08-08T05:09:07.270Z,20.24
2022-08-08T05:11:40.614Z,20.47
2022-08-08T05:14:12.038Z,20.71
2022-08-08T05:16:55.641Z,20.87
2022-08-08T05:20:09.692Z,21.07
2022-08-08T05:22:18.141Z,21.34
2022-08-08T05:24:50.015Z,21.61
2022-08-08T05:27:19.624Z,21.84
2022-08-08T05:29:51.755Z,22.08
2022-08-08T05:32:19.577Z,22.33
2022-08-08T05:34:53.332Z,22.57
2022-08-08T05:37:39.117Z,22.83
2022-08-08T05:40:16.579Z,23.08
2022-08-08T05:42:49.295Z,23.22
2022-08-08T05:45:25.227Z,23.38
2022-08-08T05:48:08.554Z,23.47
2022-08-08T05:50:38.975Z,23.62
2022-08-08T05:53:54.550Z,23.76
2022-08-08T05:56:09.676Z,23.98
2022-08-08T05:58:57.756Z,24.16
2022-08-08T06:01:56.142Z,24.19
2022-08-08T06:04:25.183Z,24.36
2022-08-08T06:07:01.583Z,24.57
2022-08-08T06:10:00.402Z,24.78
2022-08-08T06:12:29.625Z,24.95
2022-08-08T06:15:06.570Z,25.08
2022-08-08T06:18:18.154Z,25.23
2022-08-08T06:20:27.290Z,25.40
2022-08-08T06:22:56.378Z,25.53
2022-08-08T06:26:34.754Z,25.65
2022-08-08T06:28:41.204Z,25.76
2022-08-08T06:31:15.661Z,25.90
2022-08-08T06:34:25.688Z,25.94
2022-08-08T06:36:53.314Z,25.97
2022-08-08T06:39:22.101Z,25.98
2022-08-08T06:41:54.322Z,26.00
2022-08-08T06:44:25.383Z,26.00
2022-08-08T06:46:56.048Z,26.01
2022-08-08T06:49:56.421Z,25.98
2022-08-08T06:52:10.378Z,25.93
2022-08-08T06:54:48.921Z,25.94
2022-08-08T06:57:16.022Z,25.94
2022-08-08T07:00:01.674Z,25.92
2022-08-08T07:02:34.277Z,25.35
2022-08-08T07:05:11.714Z,24.82
2022-08-08T07:07:49.456Z,24.78
2022-08-08T07:10:23.689Z,24.78
2022-08-08T07:13:00.962Z,24.80
2022-08-08T07:16:04.736Z,24.88
2022-08-08T07:18:46.056Z,24.81
2022-08-08T07:21:22.550Z,24.81
2022-08-08T07:24:09.863Z,24.86
2022-08-08T07:26:55.384Z,24.55
2022-08-08T07:30:02.020Z,24.05
2022-08-08T07:32:15.630Z,24.09
2022-08-08T07:34:59.427Z,24.08
2022-08-08T07:37:55.445Z,24.08
2022-08-08T07:40:29.737Z,23.75
2022-08-08T07:43:14.782Z,23.21
2022-08-08T07:46:17.396Z,22.97
2022-08-08T07:48:39.701Z,22.64
2022-08-08T07:51:24.434Z,22.48
2022-08-08T07:54:26.818Z,22.64
2022-08-08T07:57:28.291Z,22.95
2022-08-08T08:00:05.022Z,23.07
2022-08-08T08:02:59.803Z,23.15
2022-08-08T08:05:33.398Z,23.29
2022-08-08T08:08:02.025Z,23.21
2022-08-08T08:10:35.793Z,23.21
2022-08-08T08:13:25.525Z,23.43
2022-08-08T08:16:18.045Z,23.65
2022-08-08T08:18:56.031Z,23.78
2022-08-08T08:21:44.098Z,23.93
2022-08-08T08:24:20.533Z,24.23
2022-08-08T08:27:02.830Z,24.33
2022-08-08T08:29:30.454Z,24.35
2022-08-08T08:31:59.282Z,24.38
2022-08-08T08:34:32.343Z,24.43
2022-08-08T08:37:08.041Z,24.46
2022-08-08T08:40:01.368Z,24.63
2022-08-08T08:42:32.091Z,24.58
2022-08-08T08:45:21.914Z,24.68
2022-08-08T08:47:54.439Z,24.71
2022-08-08T08:50:32.951Z,24.77
2022-08-08T08:53:55.138Z,24.84
2022-08-08T08:55:56.081Z,24.98
2022-08-08T08:58:43.166Z,25.06
2022-08-08T09:01:19.010Z,25.14
2022-08-08T09:03:51.146Z,25.23
2022-08-08T09:06:34.332Z,25.23
2022-08-08T09:09:35.235Z,25.36
2022-08-08T09:12:26.002Z,25.33
2022-08-08T09:14:57.023Z,25.28
2022-08-08T09:17:40.872Z,25.29
2022-08-08T09:21:59.113Z,25.35
2022-08-08T09:22:59.067Z,25.38
2022-08-08T09:25:36.233Z,25.39
2022-08-08T09:28:35.610Z,25.42
2022-08-08T09:31:13.416Z,25.35
2022-08-08T09:34:15.193Z,25.33
2022-08-08T09:36:35.898Z,25.40
2022-08-08T09:39:10.124Z,25.50
2022-08-08T09:41:54.867Z,25.62
2022-08-08T09:44:48.459Z,25.30
2022-08-08T09:48:02.035Z,24.84
2022-08-08T09:50:14.041Z,24.94
2022-08-08T09:52:57.572Z,24.95
2022-08-08T09:55:51.909Z,24.63
2022-08-08T09:58:27.675Z,24.46
2022-08-08T10:01:59.046Z,24.67
2022-08-08T10:04:38.263Z,24.71
2022-08-08T10:07:07.432Z,24.90
2022-08-08T10:09:59.747Z,25.10
2022-08-08T10:12:52.873Z,25.28
2022-08-08T10:15:22.395Z,25.46
2022-08-08T10:17:56.357Z,25.61
2022-08-08T10:20:51.402Z,25.61
2022-08-08T10:23:44.826Z,25.54
2022-08-08T10:26:29.775Z,25.43
2022-08-08T10:29:06.730Z,25.52
2022-08-08T10:31:55.996Z,25.44
2022-08-08T10:34:24.401Z,25.16
2022-08-08T10:36:55.833Z,25.06
2022-08-08T10:39:55.560Z,25.12
2022-08-08T10:42:34.388Z,25.00
2022-08-08T10:45:08.061Z,25.03
2022-08-08T10:47:43.707Z,24.97
2022-08-08T10:50:15.351Z,25.04
2022-08-08T10:52:43.091Z,25.27
2022-08-08T10:55:15.454Z,25.46
2022-08-08T10:58:03.476Z,25.56
2022-08-08T11:00:39.266Z,25.71
2022-08-08T11:03:37.156Z,25.74
2022-08-08T11:06:12.729Z,25.60
2022-08-08T11:08:50.230Z,25.63
2022-08-08T11:11:59.654Z,25.37
2022-08-08T11:14:15.821Z,25.29
2022-08-08T11:16:46.888Z,25.41
2022-08-08T11:19:17.280Z,25.43
2022-08-08T11:21:54.245Z,25.48
2022-08-08T11:24:26.808Z,25.35
2022-08-08T11:26:57.940Z,25.32
2022-08-08T11:29:41.376Z,25.49
2022-08-08T11:32:17.113Z,25.63
2022-08-08T11:35:08.987Z,25.68
2022-08-08T11:38:37.247Z,25.73
2022-08-08T11:40:26.956Z,25.93
2022-08-08T11:43:00.066Z,25.99
2022-08-08T11:45:29.748Z,26.11
2022-08-08T11:48:05.465Z,26.29
2022-08-08T11:50:37.124Z,26.34
2022-08-08T11:53:06.296Z,26.29
2022-08-08T11:55:35.448Z,26.33
2022-08-08T11:58:14.357Z,26.39
2022-08-08T12:00:47.052Z,26.58
2022-08-08T12:03:30.458Z,26.79
2022-08-08T12:05:58.462Z,26.93
2022-08-08T12:08:35.595Z,27.03
2022-08-08T12:11:09.196Z,27.17
2022-08-08T12:14:02.790Z,27.30
2022-08-08T12:16:30.282Z,27.48
2022-08-08T12:19:00.785Z,27.41
2022-08-08T12:21:59.245Z,27.12
2022-08-08T12:24:27.908Z,26.55
2022-08-08T12:26:57.156Z,26.27
2022-08-08T12:29:42.127Z,26.22
2022-08-08T12:32:19.558Z,26.22
2022-08-08T12:35:13.387Z,26.39
2022-08-08T12:38:01.632Z,26.58
2022-08-08T12:40:56.278Z,26.74
2022-08-08T12:43:46.325Z,26.98
2022-08-08T12:46:25.299Z,27.22
2022-08-08T12:51:50.210Z,27.10
2022-08-08T12:54:25.465Z,26.86
2022-08-08T12:56:53.151Z,26.65
2022-08-08T13:00:04.729Z,26.87
2022-08-08T13:02:42.184Z,27.09
2022-08-08T13:05:27.071Z,27.06
2022-08-08T13:08:20.702Z,27.16
2022-08-08T13:10:56.675Z,27.09
2022-08-08T13:13:34.990Z,26.82
2022-08-08T13:16:21.810Z,26.59
2022-08-08T13:19:01.626Z,26.48
2022-08-08T13:21:53.252Z,26.46
2022-08-08T13:24:42.526Z,26.28
2022-08-08T13:27:20.047Z,26.23
2022-08-08T13:30:26.419Z,26.40
2022-08-08T13:33:00.685Z,26.57
2022-08-08T13:35:40.508Z,26.72
2022-08-08T13:38:13.674Z,26.87
2022-08-08T13:40:45.109Z,27.02
2022-08-08T13:43:16.246Z,27.09
2022-08-08T13:45:47.535Z,27.18
2022-08-08T13:48:17.330Z,27.20
2022-08-08T13:50:56.863Z,26.96
2022-08-08T13:53:33.809Z,26.68
2022-08-08T13:56:06.530Z,26.34
2022-08-08T13:58:57.399Z,26.12
2022-08-08T14:01:42.280Z,26.24
2022-08-08T14:04:21.873Z,26.27
2022-08-08T14:06:48.689Z,26.28
2022-08-08T14:09:24.611Z,26.27
2022-08-08T14:11:59.806Z,26.26
2022-08-08T14:14:42.251Z,26.34
2022-08-08T14:17:22.138Z,26.30
2022-08-08T14:20:06.278Z,26.43
2022-08-08T14:22:38.089Z,26.39
2022-08-08T14:25:15.527Z,26.39
2022-08-08T14:27:59.743Z,26.23
2022-08-08T14:30:33.926Z,26.05
2022-08-08T14:33:01.383Z,25.96
2022-08-08T14:35:35.817Z,25.98
2022-08-08T14:38:34.801Z,25.97
2022-08-08T14:40:59.254Z,25.83
2022-08-08T14:44:02.702Z,25.60
2022-08-08T14:46:30.990Z,25.36
2022-08-08T14:49:09.589Z,25.25
2022-08-08T14:51:53.076Z,25.16
2022-08-08T14:54:29.037Z,25.13
2022-08-08T14:56:58.685Z,25.22
2022-08-08T14:59:50.018Z,25.32
2022-08-08T15:02:22.723Z,25.47
2022-08-08T15:04:53.612Z,25.57
2022-08-08T15:07:24.482Z,25.62
2022-08-08T15:10:05.605Z,25.65
2022-08-08T15:12:36.250Z,25.53
2022-08-08T15:15:06.606Z,25.48
2022-08-08T15:17:36.653Z,25.45
2022-08-08T15:20:10.696Z,25.51
2022-08-08T15:22:44.660Z,25.39
2022-08-08T15:25:18.079Z,25.32
2022-08-08T15:28:03.276Z,25.28
2022-08-08T15:30:32.730Z,25.21
2022-08-08T15:32:59.159Z,25.14
2022-08-08T15:35:27.819Z,25.23
2022-08-08T15:37:56.383Z,25.32
2022-08-08T15:40:23.265Z,25.30
2022-08-08T15:42:55.398Z,25.24
2022-08-08T15:45:22.904Z,25.19
2022-08-08T15:48:04.116Z,25.20
2022-08-08T15:50:58.382Z,25.31
2022-08-08T15:53:27.716Z,25.44
2022-08-08T15:56:01.025Z,25.41
2022-08-08T15:58:28.360Z,25.34
2022-08-08T16:00:58.981Z,25.32
2022-08-08T16:03:25.515Z,25.39
2022-08-08T16:06:01.064Z,25.49
2022-08-08T16:08:28.771Z,25.47
2022-08-08T16:13:09.178Z,25.49
2022-08-08T16:13:45.713Z,25.40
2022-08-08T16:16:17.999Z,25.31
2022-08-08T16:18:56.205Z,25.25
2022-08-08T16:21:31.679Z,25.28
2022-08-08T16:24:05.763Z,25.29
2022-08-08T16:26:36.175Z,25.30
2022-08-08T16:29:16.546Z,25.29
2022-08-08T16:31:49.137Z,25.19
2022-08-08T16:34:20.897Z,25.15
2022-08-08T16:36:51.535Z,25.09
2022-08-08T16:39:59.497Z,25.05
2022-08-08T16:42:07.667Z,25.00
2022-08-08T16:44:53.985Z,24.85
2022-08-08T16:47:40.590Z,24.65
2022-08-08T16:50:14.225Z,24.46
2022-08-08T16:55:01.957Z,24.25
2022-08-08T16:55:55.451Z,24.12
2022-08-08T16:58:29.342Z,24.07
2022-08-08T17:01:06.201Z,24.05
2022-08-08T17:03:58.066Z,24.05
2022-08-08T17:06:36.465Z,24.11
2022-08-08T17:09:06.127Z,24.11
2022-08-08T17:11:38.853Z,24.07
2022-08-08T17:14:18.020Z,24.09
2022-08-08T17:16:57.130Z,24.09
2022-08-08T17:19:26.138Z,24.09
2022-08-08T17:21:53.579Z,24.07
2022-08-08T17:24:27.724Z,24.04
2022-08-08T17:26:54.985Z,24.00
2022-08-08T17:29:25.288Z,23.88
2022-08-08T17:31:52.282Z,23.74
2022-08-08T17:34:48.659Z,23.68
2022-08-08T17:37:06.744Z,23.61
2022-08-08T17:40:04.740Z,23.47
2022-08-08T17:42:31.325Z,23.41
2022-08-08T17:44:59.034Z,23.33
2022-08-08T17:47:37.451Z,23.24
2022-08-08T17:50:05.830Z,23.14
2022-08-08T17:52:34.360Z,23.08
2022-08-08T17:55:05.388Z,23.06
2022-08-08T17:57:36.309Z,23.00
2022-08-08T18:00:13.206Z,22.91
2022-08-08T18:02:52.403Z,22.80
2022-08-08T18:05:43.999Z,22.67
2022-08-08T18:08:37.876Z,22.54
2022-08-08T18:11:15.279Z,22.43
2022-08-08T18:13:44.388Z,22.35
2022-08-08T18:16:20.424Z,22.27
2022-08-08T18:18:56.309Z,22.19
2022-08-08T18:22:00.301Z,22.09
2022-08-08T18:24:21.353Z,21.98
2022-08-08T18:26:54.788Z,21.87
2022-08-08T18:29:29.844Z,21.77
2022-08-08T18:32:03.241Z,21.68
2022-08-08T18:34:32.970Z,21.59
2022-08-08T18:37:02.536Z,21.50
2022-08-08T18:39:34.205Z,21.43
2022-08-08T18:42:04.976Z,21.33
2022-08-08T18:44:34.768Z,21.23
2022-08-08T18:47:03.694Z,21.14
2022-08-08T18:49:32.443Z,21.06
2022-08-08T18:52:22.327Z,20.98
2022-08-08T18:55:00.087Z,20.92
2022-08-08T18:57:44.686Z,20.87
2022-08-08T19:00:20.183Z,20.80
2022-08-08T19:03:08.038Z,20.75
2022-08-08T19:05:43.975Z,20.77
2022-08-08T19:08:25.156Z,20.79
2022-08-08T19:10:58.566Z,20.77
2022-08-08T19:13:47.356Z,20.77
2022-08-08T19:16:19.001Z,20.72
2022-08-08T19:19:00.231Z,20.68
2022-08-08T19:21:32.891Z,20.63
2022-08-08T19:24:05.402Z,20.57
2022-08-08T19:26:34.481Z,20.53
2022-08-08T19:29:22.252Z,20.49
2022-08-08T19:31:50.680Z,20.43
2022-08-08T19:34:29.889Z,20.37
2022-08-08T19:36:59.227Z,20.30
2022-08-08T19:39:30.885Z,20.23
2022-08-08T19:42:07.146Z,20.16
2022-08-08T19:44:45.460Z,20.09
2022-08-08T19:47:14.495Z,20.01
2022-08-08T19:49:43.088Z,19.94
2022-08-08T19:52:11.843Z,19.90
2022-08-08T19:54:40.087Z,19.84
2022-08-08T19:57:10.496Z,19.77
2022-08-08T19:59:43.417Z,19.71
2022-08-08T20:02:11.292Z,19.66
2022-08-08T20:04:39.617Z,19.64
2022-08-08T20:08:29.642Z,19.59
2022-08-08T20:09:59.125Z,19.52
2022-08-08T20:12:32.039Z,19.47
2022-08-08T20:15:14.906Z,19.40
2022-08-08T20:17:46.304Z,19.32
2022-08-08T20:20:15.925Z,19.25
2022-08-08T20:22:46.755Z,19.18
2022-08-08T20:25:20.483Z,19.10
2022-08-08T20:27:50.243Z,19.01
2022-08-08T20:30:53.309Z,18.92
2022-08-08T20:33:20.193Z,18.82
2022-08-08T20:35:59.035Z,18.74
2022-08-08T20:38:32.538Z,18.65
2022-08-08T20:41:05.657Z,18.58
2022-08-08T20:43:48.341Z,18.49
2022-08-08T20:46:20.763Z,18.40
2022-08-08T20:48:50.530Z,18.27
2022-08-08T20:51:20.795Z,18.17
2022-08-08T20:54:00.622Z,18.11
2022-08-08T20:56:34.625Z,18.05
2022-08-08T20:59:09.023Z,17.98
2022-08-08T21:01:44.184Z,17.93
2022-08-08T21:04:23.492Z,17.87
2022-08-08T21:06:54.059Z,17.82
2022-08-08T21:09:21.583Z,17.76
2022-08-08T21:11:50.723Z,17.71
2022-08-08T21:14:18.791Z,17.67
2022-08-08T21:16:57.066Z,17.62
2022-08-08T21:19:26.121Z,17.57
2022-08-08T21:22:01.546Z,17.53
2022-08-08T21:24:30.570Z,17.49
2022-08-08T21:26:58.583Z,17.45
2022-08-08T21:30:05.299Z,17.40
2022-08-08T21:32:14.352Z,17.36
2022-08-08T21:34:51.292Z,17.31
2022-08-08T21:37:23.271Z,17.25
2022-08-08T21:40:10.594Z,17.21
2022-08-08T21:42:39.446Z,17.16
2022-08-08T21:45:44.671Z,17.11
2022-08-08T21:48:19.593Z,17.05
2022-08-08T21:50:42.143Z,17.00
2022-08-08T21:54:33.713Z,16.95
2022-08-08T21:56:19.396Z,16.89
2022-08-08T21:58:43.384Z,16.83
2022-08-08T22:01:27.964Z,16.75
2022-08-08T22:04:06.435Z,16.68
2022-08-08T22:06:32.896Z,16.62
2022-08-08T22:09:02.760Z,16.60
2022-08-08T22:11:58.774Z,16.56
2022-08-08T22:14:21.994Z,16.52
2022-08-08T22:16:53.413Z,16.48
2022-08-08T22:19:23.634Z,16.45
2022-08-08T22:21:51.515Z,16.41
2022-08-08T22:24:18.076Z,16.38
2022-08-08T22:27:01.423Z,16.35
2022-08-08T22:29:59.126Z,16.31
2022-08-08T22:32:18.117Z,16.26
2022-08-08T22:34:50.560Z,16.21
2022-08-08T22:37:49.019Z,16.15
2022-08-08T22:40:07.315Z,16.08
2022-08-08T22:42:39.783Z,16.04
2022-08-08T22:45:12.948Z,15.99
2022-08-08T22:47:47.190Z,15.95
2022-08-08T22:50:26.917Z,15.93
2022-08-08T22:54:27.944Z,15.92
2022-08-08T22:55:58.416Z,15.91
2022-08-08T22:58:31.230Z,15.91
2022-08-08T23:02:00.589Z,15.91
2022-08-08T23:03:56.719Z,15.90
2022-08-08T23:06:26.416Z,15.89
2022-08-08T23:08:55.965Z,15.86
2022-08-08T23:11:57.995Z,15.86
2022-08-08T23:14:20.490Z,15.83
2022-08-08T23:16:53.287Z,15.80
2022-08-08T23:19:26.527Z,15.78
2022-08-08T23:21:53.143Z,15.76
2022-08-08T23:24:22.906Z,15.74
2022-08-08T23:26:53.470Z,15.71
2022-08-08T23:29:24.539Z,15.68
2022-08-08T23:31:54.297Z,15.66
2022-08-08T23:34:21.938Z,15.62
2022-08-08T23:36:56.611Z,15.60
2022-08-08T23:39:41.508Z,15.57
2022-08-08T23:42:16.165Z,15.54
2022-08-08T23:44:42.766Z,15.51
2022-08-08T23:49:01.630Z,15.48
2022-08-08T23:50:03.078Z,15.45
2022-08-08T23:52:33.882Z,15.42
2022-08-08T23:55:14.318Z,15.39
2022-08-08T23:57:53.158Z,15.34
